createdAt,value
2022-12-04T00:04:52.765Z,4.00
2022-12-04T00:20:18.946Z,3.80
2022-12-04T00:25:20.694Z,4.10
2022-12-04T00:30:22.439Z,4.10
2022-12-04T00:35:25.647Z,4.80
2022-12-04T00:40:27.405Z,4.20
2022-12-04T00:45:29.488Z,4.10
2022-12-04T00:50:31.283Z,4.10
2022-12-04T00:55:33.040Z,4.20
2022-12-04T01:00:40.496Z,4.10
2022-12-04T01:05:44.477Z,4.10
2022-12-04T01:10:46.260Z,4.30
2022-12-04T01:15:49.210Z,4.50
2022-12-04T01:20:52.508Z,4.30
2022-12-04T01:25:57.917Z,4.30
2022-12-04T01:31:01.815Z,4.30
2022-12-04T01:36:06.429Z,4.20
2022-12-04T01:41:09.678Z,4.20
2022-12-04T01:51:28.432Z,4.20
2022-12-04T01:56:36.779Z,4.10
2022-12-04T02:01:54.147Z,4.30
2022-12-04T02:12:10.834Z,4.20
2022-12-04T02:17:36.525Z,4.30
2022-12-04T02:23:06.046Z,4.20
2022-12-04T02:28:31.565Z,4.30
2022-12-04T02:33:42.748Z,4.00
2022-12-04T02:38:57.115Z,4.20
2022-12-04T02:44:04.513Z,4.20
2022-12-04T02:49:13.054Z,4.30
2022-12-04T02:54:34.395Z,4.20
2022-12-04T02:59:41.139Z,4.20
2022-12-04T03:09:59.611Z,4.30
2022-12-04T03:15:08.467Z,4.20
2022-12-04T03:20:14.760Z,4.20
2022-12-04T03:25:16.796Z,4.40
2022-12-04T03:30:22.141Z,5.90
2022-12-04T03:35:33.336Z,4.50
2022-12-04T03:40:39.322Z,4.60
2022-12-04T03:45:50.677Z,4.40
2022-12-04T03:50:52.351Z,6.10
2022-12-04T03:56:21.660Z,4.40
2022-12-04T04:01:33.257Z,4.30
2022-12-04T04:06:42.355Z,4.20
2022-12-04T04:12:11.220Z,4.40
2022-12-04T04:17:38.394Z,4.40
2022-12-04T04:22:59.539Z,4.50
2022-12-04T04:33:16.327Z,4.60
2022-12-04T04:38:31.408Z,4.50
2022-12-04T04:43:40.073Z,4.50
2022-12-04T04:48:46.637Z,4.50
2022-12-04T04:53:53.461Z,4.60
2022-12-04T05:08:59.848Z,4.60
2022-12-04T05:24:25.140Z,4.50
2022-12-04T05:29:28.564Z,4.50
2022-12-04T05:34:33.766Z,4.50
2022-12-04T05:39:35.732Z,4.30
2022-12-04T05:44:37.501Z,4.50
2022-12-04T06:14:50.164Z,4.50
2022-12-04T06:24:55.630Z,4.50
2022-12-04T06:29:57.642Z,4.50
2022-12-04T06:34:59.713Z,4.50
2022-12-04T06:50:06.808Z,4.40
2022-12-04T07:00:11.217Z,4.40
2022-12-04T07:40:28.281Z,4.40
2022-12-04T07:45:30.077Z,4.40
2022-12-04T07:50:31.873Z,4.50
2022-12-04T08:10:40.993Z,4.30
2022-12-04T08:20:45.867Z,4.70
2022-12-04T08:25:47.550Z,4.60
2022-12-04T08:46:01.522Z,4.70
2022-12-04T08:51:04.461Z,4.70
2022-12-04T08:56:06.972Z,4.70
2022-12-04T09:01:11.729Z,4.80
2022-12-04T09:06:15.616Z,4.80
2022-12-04T09:11:19.880Z,4.70
2022-12-04T09:16:24.350Z,4.80
2022-12-04T09:26:30.719Z,5.00
2022-12-04T09:31:33.512Z,4.90
2022-12-04T09:36:35.335Z,5.00
2022-12-04T09:46:58.974Z,5.30
2022-12-04T09:52:05.626Z,5.10
2022-12-04T09:57:29.673Z,5.30
2022-12-04T10:07:42.314Z,5.30
2022-12-04T10:12:56.133Z,5.40
2022-12-04T10:18:22.755Z,5.30
2022-12-04T10:24:00.926Z,5.40
2022-12-04T10:29:28.465Z,5.20
2022-12-04T10:34:32.442Z,5.20
2022-12-04T10:39:41.864Z,5.40
2022-12-04T10:44:43.648Z,5.30
2022-12-04T10:54:57.020Z,5.30
2022-12-04T11:05:07.262Z,5.40
2022-12-04T11:10:22.731Z,5.40
2022-12-04T11:15:25.459Z,5.50
2022-12-04T11:20:28.051Z,5.50
2022-12-04T11:25:46.026Z,5.50
2022-12-04T11:30:51.666Z,5.60
2022-12-04T11:35:59.993Z,5.50
2022-12-04T11:41:03.940Z,5.40
2022-12-04T11:46:07.057Z,5.50
2022-12-04T11:51:30.667Z,5.70
2022-12-04T11:57:04.201Z,5.70
2022-12-04T12:02:15.706Z,5.50
2022-12-04T12:07:20.996Z,5.60
2022-12-04T12:17:47.067Z,5.60
2022-12-04T12:22:52.059Z,5.90
2022-12-04T12:28:12.264Z,5.70
2022-12-04T12:33:24.392Z,5.80
2022-12-04T12:38:37.182Z,6.00
2022-12-04T12:43:39.816Z,6.00
2022-12-04T12:48:56.548Z,6.00
2022-12-04T12:54:39.170Z,6.00
2022-12-04T12:59:47.571Z,5.90
2022-12-04T13:04:53.083Z,5.90
2022-12-04T13:10:06.897Z,6.00
2022-12-04T13:15:15.499Z,6.10
2022-12-04T13:20:23.639Z,5.90
2022-12-04T13:25:35.624Z,6.10
2022-12-04T13:30:56.493Z,6.10
2022-12-04T13:36:23.127Z,6.10
2022-12-04T13:41:27.244Z,6.20
2022-12-04T13:46:41.076Z,6.20
2022-12-04T13:51:47.459Z,6.00
2022-12-04T13:56:52.414Z,6.10
2022-12-04T14:02:04.904Z,6.20
2022-12-04T14:07:27.962Z,6.20
2022-12-04T14:12:34.720Z,6.10
2022-12-04T14:17:39.444Z,6.20
2022-12-04T14:22:44.066Z,6.10
2022-12-04T14:27:51.856Z,6.00
2022-12-04T14:32:56.378Z,5.50
2022-12-04T14:38:04.676Z,5.80
2022-12-04T14:43:13.512Z,6.00
2022-12-04T14:48:29.467Z,6.00
2022-12-04T14:53:49.204Z,6.00
2022-12-04T14:58:51.776Z,6.10
2022-12-04T15:04:01.273Z,6.10
2022-12-04T15:09:32.414Z,5.70
2022-12-04T15:14:40.987Z,5.80
2022-12-04T15:19:43.375Z,5.90
2022-12-04T15:29:49.226Z,6.00
2022-12-04T15:34:58.848Z,6.10
2022-12-04T15:40:05.175Z,6.10
2022-12-04T15:45:10.080Z,6.00
2022-12-04T15:50:22.713Z,5.80
2022-12-04T15:55:26.168Z,5.70
2022-12-04T16:00:36.417Z,5.80
2022-12-04T16:05:38.523Z,5.60
2022-12-04T16:15:43.819Z,5.80
2022-12-04T16:20:45.654Z,5.90
2022-12-04T16:30:55.428Z,5.60
2022-12-04T16:35:57.323Z,5.70
2022-12-04T16:46:01.990Z,5.50
2022-12-04T16:51:03.807Z,5.80
2022-12-04T17:01:23.181Z,5.90
2022-12-04T17:06:25.051Z,5.90
2022-12-04T17:11:27.029Z,5.80
2022-12-04T17:16:29.628Z,5.60
2022-12-04T17:21:31.649Z,5.70
2022-12-04T17:26:33.454Z,5.90
2022-12-04T17:36:39.005Z,5.60
2022-12-04T17:41:40.858Z,5.80
2022-12-04T17:46:42.827Z,5.80
2022-12-04T18:01:54.113Z,5.30
2022-12-04T18:06:56.537Z,5.60
2022-12-04T18:12:01.416Z,5.60
2022-12-04T18:22:06.166Z,5.60
2022-12-04T18:27:08.369Z,5.70
2022-12-04T18:32:10.150Z,5.40
2022-12-04T18:42:14.172Z,5.60
2022-12-04T18:47:16.015Z,5.50
2022-12-04T18:52:17.881Z,5.50
2022-12-04T18:57:19.673Z,5.50
2022-12-04T19:17:28.044Z,5.70
2022-12-04T19:42:43.941Z,5.60
2022-12-04T20:07:55.805Z,5.60
2022-12-04T20:38:08.625Z,5.50
2022-12-04T20:43:10.380Z,5.50
2022-12-04T20:48:12.402Z,5.70
2022-12-04T20:53:14.172Z,5.70
2022-12-04T20:58:15.911Z,5.70
2022-12-04T21:03:17.841Z,5.60
2022-12-04T21:08:39.514Z,5.70
2022-12-04T21:19:03.810Z,5.80
2022-12-04T21:24:07.837Z,5.70
2022-12-04T21:34:13.857Z,5.80
2022-12-04T21:39:15.963Z,5.80
2022-12-04T21:44:19.858Z,5.80
2022-12-04T21:54:24.182Z,5.70
2022-12-04T22:04:28.386Z,5.70
2022-12-04T22:14:32.413Z,5.70
2022-12-04T22:19:34.238Z,5.60
2022-12-04T22:24:36.010Z,5.50
2022-12-04T22:29:53.041Z,5.50
2022-12-04T22:34:54.799Z,5.50
2022-12-04T22:44:59.129Z,5.70
2022-12-04T22:50:00.986Z,5.70
2022-12-04T23:00:05.663Z,5.60
2022-12-04T23:10:09.991Z,5.70
2022-12-04T23:20:13.968Z,5.70
2022-12-04T23:25:15.731Z,5.70
2022-12-04T23:30:21.404Z,5.80
2022-12-04T23:40:28.311Z,5.80
2022-12-04T23:45:30.000Z,5.80
2022-12-04T23:50:31.762Z,5.90
2022-12-04T23:55:34.739Z,5.90
